Sodus, Michigan
Current Conditions -  °F | °C
As of 4:53 PM on Thursday 23 Oct 2014 (Local Time) from KBEH Reporting Station
Clear Clear  
Wind Chill: 56°   Ceiling: Unl
Heat Index: 56°   Visibility: 10mi
Dew Point: 39°   Wind: 5mph
Humidity: 53%   Direction: 200°SSW
Pressure: 30.11"   Gusts: NA
Location:  42.04°N, 86.37°W
Report Text: KBEH 232053Z AUTO 20004KT 10SM CLR 13/04 A3011 RMK AO2 SLP201 T01330039 56024
Loading
Personal Weather Stations






























Interactive Weather Map
Tropical Storm Tracking
New forecast layout! Learn more

10-Day Weather Forecast

Advertisements
Track Severe Weather on mobile